createdAt,value
2022-11-09T00:01:28.813Z,10.64
2022-11-09T00:04:01.862Z,10.58
2022-11-09T00:06:31.277Z,10.67
2022-11-09T00:09:05.746Z,10.62
2022-11-09T00:11:34.612Z,10.70
2022-11-09T00:14:02.099Z,10.67
2022-11-09T00:16:29.656Z,10.53
2022-11-09T00:18:57.088Z,10.60
2022-11-09T00:21:25.855Z,10.57
2022-11-09T00:23:54.073Z,10.64
2022-11-09T00:26:22.607Z,10.60
2022-11-09T00:28:51.250Z,10.62
2022-11-09T00:31:21.878Z,10.57
2022-11-09T00:33:51.616Z,10.50
2022-11-09T00:36:20.739Z,10.41
2022-11-09T00:38:55.151Z,10.36
2022-11-09T00:41:23.926Z,10.39
2022-11-09T00:43:52.455Z,10.42
2022-11-09T00:46:21.483Z,10.52
2022-11-09T00:48:51.420Z,10.45
2022-11-09T00:51:19.760Z,10.41
2022-11-09T00:53:48.497Z,10.48
2022-11-09T00:56:16.246Z,10.38
2022-11-09T00:58:43.776Z,10.28
2022-11-09T01:01:17.318Z,10.29
2022-11-09T01:03:46.327Z,10.13
2022-11-09T01:06:20.888Z,10.15
2022-11-09T01:08:49.463Z,10.22
2022-11-09T01:11:22.275Z,10.21
2022-11-09T01:13:52.945Z,10.18
2022-11-09T01:16:23.476Z,10.10
2022-11-09T01:18:55.379Z,10.06
2022-11-09T01:21:25.540Z,9.95
2022-11-09T01:23:53.198Z,10.10
2022-11-09T01:26:20.824Z,10.09
2022-11-09T01:28:50.355Z,9.95
2022-11-09T01:31:23.053Z,9.98
2022-11-09T01:33:50.843Z,9.93
2022-11-09T01:36:23.925Z,9.85
2022-11-09T01:38:52.232Z,9.85
2022-11-09T01:41:27.783Z,9.93
2022-11-09T01:44:16.518Z,9.96
2022-11-09T01:47:06.744Z,9.94
2022-11-09T01:49:41.144Z,9.93
2022-11-09T01:52:22.096Z,10.01
2022-11-09T01:55:02.462Z,10.08
2022-11-09T01:57:41.627Z,9.93
2022-11-09T02:00:15.085Z,9.94
2022-11-09T02:03:01.731Z,9.98
2022-11-09T02:05:33.319Z,10.00
2022-11-09T02:08:03.735Z,10.00
2022-11-09T02:10:43.228Z,9.82
2022-11-09T02:13:14.047Z,9.86
2022-11-09T02:15:45.703Z,9.89
2022-11-09T02:18:13.987Z,9.88
2022-11-09T02:20:54.821Z,9.73
2022-11-09T02:23:25.603Z,9.56
2022-11-09T02:26:09.601Z,9.60
2022-11-09T02:28:40.220Z,9.49
2022-11-09T02:31:11.888Z,9.30
2022-11-09T02:33:59.269Z,9.40
2022-11-09T02:36:26.880Z,9.52
2022-11-09T02:38:57.234Z,9.30
2022-11-09T02:41:25.520Z,9.11
2022-11-09T02:43:54.421Z,9.18
2022-11-09T02:46:34.523Z,9.08
2022-11-09T02:49:04.060Z,9.02
2022-11-09T02:51:32.154Z,8.87
2022-11-09T02:53:59.974Z,8.80
2022-11-09T02:56:27.846Z,8.82
2022-11-09T02:58:56.093Z,8.81
2022-11-09T03:01:23.771Z,8.89
2022-11-09T03:03:51.702Z,8.94
2022-11-09T03:06:19.132Z,8.94
2022-11-09T03:08:47.450Z,8.93
2022-11-09T03:11:15.503Z,9.00
2022-11-09T03:13:43.133Z,9.06
2022-11-09T03:16:11.231Z,9.03
2022-11-09T03:18:40.299Z,9.12
2022-11-09T03:21:08.823Z,9.09
2022-11-09T03:23:38.704Z,9.05
2022-11-09T03:26:06.531Z,9.12
2022-11-09T03:28:34.040Z,9.28
2022-11-09T03:31:02.250Z,9.35
2022-11-09T03:33:30.448Z,9.36
2022-11-09T03:35:57.981Z,9.33
2022-11-09T03:38:25.510Z,9.35
2022-11-09T03:40:53.334Z,9.37
2022-11-09T03:43:21.169Z,9.46
2022-11-09T03:45:49.053Z,9.46
2022-11-09T03:48:16.683Z,9.56
2022-11-09T03:50:44.144Z,9.64
2022-11-09T03:53:13.099Z,9.69
2022-11-09T03:55:42.043Z,9.71
2022-11-09T03:58:13.313Z,9.86
2022-11-09T04:00:41.242Z,9.88
2022-11-09T04:03:08.658Z,9.87
2022-11-09T04:05:36.543Z,9.91
2022-11-09T04:08:04.272Z,9.77
2022-11-09T04:10:31.781Z,9.68
2022-11-09T04:12:59.248Z,9.63
2022-11-09T04:15:26.686Z,9.63
2022-11-09T04:18:02.448Z,9.61
2022-11-09T04:20:32.377Z,9.57
2022-11-09T04:23:04.027Z,9.51
2022-11-09T04:25:38.408Z,9.59
2022-11-09T04:28:08.617Z,9.56
2022-11-09T04:30:37.463Z,9.56
2022-11-09T04:33:05.669Z,9.60
2022-11-09T04:35:35.216Z,9.58
2022-11-09T04:38:08.028Z,9.67
2022-11-09T04:40:36.920Z,9.74
2022-11-09T04:43:07.281Z,9.76
2022-11-09T04:45:35.972Z,9.99
2022-11-09T04:48:07.007Z,9.94
2022-11-09T04:50:34.940Z,9.94
2022-11-09T04:53:11.045Z,10.03
2022-11-09T04:55:39.599Z,10.01
2022-11-09T04:58:08.749Z,10.02
2022-11-09T05:00:37.039Z,10.16
2022-11-09T05:03:07.607Z,10.15
2022-11-09T05:05:36.958Z,10.20
2022-11-09T05:08:06.417Z,10.20
2022-11-09T05:10:34.996Z,10.27
2022-11-09T05:13:06.159Z,10.34
2022-11-09T05:15:35.286Z,10.45
2022-11-09T05:18:03.252Z,10.42
2022-11-09T05:20:31.097Z,10.47
2022-11-09T05:23:19.150Z,10.45
2022-11-09T05:25:47.857Z,10.44
2022-11-09T05:28:15.646Z,10.44
2022-11-09T05:30:43.166Z,10.43
2022-11-09T05:33:10.809Z,10.54
2022-11-09T05:35:38.239Z,10.60
2022-11-09T05:38:08.127Z,10.72
2022-11-09T05:40:35.605Z,10.73
2022-11-09T05:43:03.035Z,10.81
2022-11-09T05:45:45.986Z,10.69
2022-11-09T05:48:16.550Z,10.81
2022-11-09T05:50:44.887Z,10.94
2022-11-09T05:53:27.372Z,11.05
2022-11-09T05:55:55.035Z,11.07
2022-11-09T05:58:22.861Z,10.99
2022-11-09T06:00:50.299Z,11.09
2022-11-09T06:03:18.077Z,11.05
2022-11-09T06:05:45.767Z,11.07
2022-11-09T06:08:15.437Z,11.15
2022-11-09T06:10:43.830Z,11.23
2022-11-09T06:13:11.794Z,11.35
2022-11-09T06:15:39.237Z,11.43
2022-11-09T06:18:06.687Z,11.54
2022-11-09T06:20:35.608Z,11.42
2022-11-09T06:23:04.466Z,11.38
2022-11-09T06:25:33.735Z,11.35
2022-11-09T06:28:01.858Z,11.58
2022-11-09T06:30:29.824Z,11.63
2022-11-09T06:33:01.930Z,12.02
2022-11-09T06:35:30.521Z,11.86
2022-11-09T06:37:59.709Z,11.78
2022-11-09T06:40:28.323Z,11.96
2022-11-09T06:43:00.213Z,11.95
2022-11-09T06:45:29.795Z,11.91
2022-11-09T06:47:59.573Z,11.90
2022-11-09T06:50:30.681Z,11.91
2022-11-09T06:53:01.387Z,11.98
2022-11-09T06:55:30.454Z,12.04
2022-11-09T06:57:58.752Z,12.14
2022-11-09T07:00:28.255Z,12.17
2022-11-09T07:02:55.684Z,12.20
2022-11-09T07:05:23.262Z,12.31
2022-11-09T07:07:51.150Z,12.35
2022-11-09T07:10:18.956Z,12.49
2022-11-09T07:12:46.769Z,12.65
2022-11-09T07:15:14.303Z,12.86
2022-11-09T07:17:42.912Z,13.02
2022-11-09T07:20:12.023Z,13.45
2022-11-09T07:22:39.980Z,13.78
2022-11-09T07:25:09.463Z,13.86
2022-11-09T07:27:37.246Z,14.14
2022-11-09T07:30:05.888Z,14.40
2022-11-09T07:33:07.315Z,14.35
2022-11-09T07:35:27.232Z,14.57
2022-11-09T07:37:54.842Z,14.56
2022-11-09T07:40:22.231Z,14.46
2022-11-09T07:42:52.342Z,14.76
2022-11-09T07:45:19.793Z,14.85
2022-11-09T07:47:47.251Z,15.11
2022-11-09T07:50:15.194Z,15.31
2022-11-09T07:52:42.637Z,15.37
2022-11-09T07:55:10.221Z,15.79
2022-11-09T07:57:37.955Z,15.81
2022-11-09T08:00:06.176Z,16.14
2022-11-09T08:02:39.160Z,16.02
2022-11-09T08:05:07.363Z,15.95
2022-11-09T08:07:35.129Z,16.05
2022-11-09T08:10:02.661Z,16.12
2022-11-09T08:12:35.772Z,16.28
2022-11-09T08:15:05.887Z,16.53
2022-11-09T08:17:33.542Z,16.84
2022-11-09T08:20:01.615Z,17.18
2022-11-09T08:22:29.161Z,17.25
2022-11-09T08:24:56.720Z,16.97
2022-11-09T08:27:24.142Z,16.74
2022-11-09T08:29:51.538Z,16.93
2022-11-09T08:32:18.978Z,16.89
2022-11-09T08:34:49.678Z,17.45
2022-11-09T08:37:17.295Z,17.17
2022-11-09T08:39:44.689Z,17.30
2022-11-09T08:42:12.132Z,17.45
2022-11-09T08:44:39.530Z,17.95
2022-11-09T08:47:07.016Z,17.83
2022-11-09T08:49:34.891Z,17.80
2022-11-09T08:52:02.332Z,17.96
2022-11-09T08:54:29.788Z,18.00
2022-11-09T08:56:57.556Z,18.21
2022-11-09T08:59:25.025Z,18.44
2022-11-09T09:01:52.465Z,18.44
2022-11-09T09:04:21.221Z,18.59
2022-11-09T09:06:48.750Z,18.82
2022-11-09T09:09:16.339Z,19.19
2022-11-09T09:11:43.755Z,19.08
2022-11-09T09:14:11.358Z,18.98
2022-11-09T09:16:41.295Z,19.37
2022-11-09T09:19:08.678Z,19.30
2022-11-09T09:21:36.130Z,18.97
2022-11-09T09:24:04.011Z,19.19
2022-11-09T09:26:31.417Z,19.36
2022-11-09T09:28:58.843Z,19.66
2022-11-09T09:31:26.310Z,19.60
2022-11-09T09:33:53.699Z,19.49
2022-11-09T09:36:23.719Z,19.88
2022-11-09T09:38:53.474Z,19.55
2022-11-09T09:41:41.838Z,19.82
2022-11-09T09:45:00.310Z,19.94
2022-11-09T09:47:54.184Z,19.67
2022-11-09T09:50:55.833Z,20.42
2022-11-09T09:53:37.222Z,20.03
2022-11-09T09:56:19.311Z,20.22
2022-11-09T09:59:34.962Z,20.65
2022-11-09T10:02:02.797Z,20.52
2022-11-09T10:04:40.319Z,20.69
2022-11-09T10:07:21.317Z,20.48
2022-11-09T10:10:06.939Z,20.39
2022-11-09T10:12:49.246Z,20.47
2022-11-09T10:15:24.268Z,20.30
2022-11-09T10:18:21.300Z,20.49
2022-11-09T10:21:21.876Z,20.80
2022-11-09T10:24:10.185Z,20.95
2022-11-09T10:27:40.255Z,21.15
2022-11-09T10:30:23.773Z,21.20
2022-11-09T10:33:21.491Z,21.10
2022-11-09T10:36:27.099Z,21.19
2022-11-09T10:38:59.028Z,21.21
2022-11-09T10:41:46.932Z,21.54
2022-11-09T10:44:32.891Z,21.62
2022-11-09T10:47:20.007Z,21.63
2022-11-09T10:50:25.337Z,21.87
2022-11-09T10:53:21.215Z,22.06
2022-11-09T10:56:21.988Z,22.87
2022-11-09T10:59:49.957Z,23.61
2022-11-09T11:02:44.603Z,23.07
2022-11-09T11:05:32.675Z,22.79
2022-11-09T11:08:32.976Z,22.91
2022-11-09T11:11:35.410Z,23.04
2022-11-09T11:14:36.383Z,23.13
2022-11-09T11:17:29.174Z,23.58
2022-11-09T11:20:33.116Z,23.74
2022-11-09T11:23:25.886Z,24.43
2022-11-09T11:26:26.742Z,25.09
2022-11-09T11:29:44.987Z,25.56
2022-11-09T11:32:31.374Z,25.70
2022-11-09T11:35:34.498Z,25.66
2022-11-09T11:39:07.567Z,25.33
2022-11-09T11:42:33.793Z,24.78
2022-11-09T11:45:42.625Z,25.01
2022-11-09T11:49:12.605Z,24.41
2022-11-09T11:52:10.372Z,24.18
2022-11-09T11:55:14.366Z,24.06
2022-11-09T11:58:19.160Z,24.45
2022-11-09T12:01:57.239Z,24.69
2022-11-09T12:05:41.153Z,24.51
2022-11-09T12:08:45.111Z,24.61
2022-11-09T12:12:12.180Z,25.54
2022-11-09T12:15:34.542Z,25.12
2022-11-09T12:19:16.884Z,24.90
2022-11-09T12:22:29.530Z,25.05
2022-11-09T12:25:27.571Z,25.67
2022-11-09T12:28:50.071Z,26.14
2022-11-09T12:32:06.062Z,26.27
2022-11-09T12:35:19.434Z,25.79
2022-11-09T12:41:38.081Z,25.35
2022-11-09T12:44:32.814Z,25.93
2022-11-09T12:47:32.001Z,26.04
2022-11-09T12:50:21.768Z,26.14
2022-11-09T12:53:08.983Z,26.46
2022-11-09T12:56:02.089Z,26.41
2022-11-09T12:58:48.310Z,27.04
2022-11-09T13:01:34.398Z,26.74
2022-11-09T13:04:23.329Z,26.58
2022-11-09T13:07:19.550Z,26.98
2022-11-09T13:10:06.419Z,26.92
2022-11-09T13:13:22.831Z,27.85
2022-11-09T13:16:33.625Z,27.64
2022-11-09T13:19:45.568Z,26.70
2022-11-09T13:22:52.265Z,26.50
2022-11-09T13:25:48.266Z,26.91
2022-11-09T13:28:34.022Z,27.06
2022-11-09T13:32:09.159Z,27.30
2022-11-09T13:35:00.596Z,27.17
2022-11-09T13:37:54.146Z,27.45
2022-11-09T13:40:42.267Z,27.37
2022-11-09T13:43:35.886Z,27.39
2022-11-09T13:46:34.079Z,26.86
2022-11-09T13:49:44.609Z,27.23
2022-11-09T13:52:50.056Z,27.18
2022-11-09T13:55:43.419Z,27.25
2022-11-09T13:58:38.000Z,27.56
2022-11-09T14:01:46.559Z,27.56
2022-11-09T14:04:43.770Z,27.58
2022-11-09T14:07:35.334Z,27.40
2022-11-09T14:10:54.986Z,27.28
2022-11-09T14:13:50.168Z,27.28
2022-11-09T14:17:02.216Z,27.05
2022-11-09T14:20:30.878Z,26.62
2022-11-09T14:23:31.648Z,26.30
2022-11-09T14:26:22.161Z,25.97
2022-11-09T14:29:23.504Z,25.48
2022-11-09T14:32:35.754Z,25.06
2022-11-09T14:35:35.150Z,24.66
2022-11-09T14:38:32.848Z,24.35
2022-11-09T14:41:27.454Z,23.97
2022-11-09T14:44:40.568Z,23.46
2022-11-09T14:47:34.746Z,22.88
2022-11-09T14:50:31.750Z,22.53
2022-11-09T14:53:24.575Z,22.02
2022-11-09T14:56:19.087Z,21.49
2022-11-09T14:59:07.477Z,21.20
2022-11-09T15:02:05.851Z,20.83
2022-11-09T15:05:01.954Z,20.47
2022-11-09T15:07:48.625Z,20.10
2022-11-09T15:10:35.299Z,20.02
2022-11-09T15:13:38.537Z,19.65
2022-11-09T15:16:32.016Z,19.59
2022-11-09T15:19:39.534Z,19.54
2022-11-09T15:23:15.791Z,19.17
2022-11-09T15:26:01.882Z,18.96
2022-11-09T15:28:50.671Z,18.74
2022-11-09T15:31:36.951Z,18.64
2022-11-09T15:34:27.007Z,18.51
2022-11-09T15:37:47.054Z,18.22
2022-11-09T15:40:33.213Z,18.17
2022-11-09T15:43:29.356Z,18.11
2022-11-09T15:46:23.464Z,17.96
2022-11-09T15:49:30.059Z,17.92
2022-11-09T15:52:16.201Z,17.72
2022-11-09T15:55:02.459Z,17.58
2022-11-09T15:57:56.506Z,17.50
2022-11-09T16:00:45.296Z,17.43
2022-11-09T16:03:35.496Z,17.35
2022-11-09T16:06:27.441Z,17.26
2022-11-09T16:09:13.626Z,17.06
2022-11-09T16:12:08.349Z,17.03
2022-11-09T16:14:54.193Z,16.89
2022-11-09T16:17:41.625Z,16.70
2022-11-09T16:20:27.483Z,16.62
2022-11-09T16:23:13.997Z,16.46
2022-11-09T16:26:04.091Z,16.44
2022-11-09T16:28:52.942Z,16.34
2022-11-09T16:31:51.405Z,16.31
2022-11-09T16:34:37.911Z,16.11
2022-11-09T16:37:25.273Z,16.07
2022-11-09T16:40:17.533Z,15.96
2022-11-09T16:43:04.093Z,15.94
2022-11-09T16:45:51.081Z,15.83
2022-11-09T16:48:38.419Z,15.82
2022-11-09T16:51:24.571Z,15.72
2022-11-09T16:54:10.659Z,15.67
2022-11-09T16:56:57.033Z,15.63
2022-11-09T16:59:44.100Z,15.41
2022-11-09T17:02:30.066Z,15.44
2022-11-09T17:05:16.371Z,15.32
2022-11-09T17:08:02.800Z,15.24
2022-11-09T17:10:48.655Z,15.15
2022-11-09T17:13:34.664Z,15.20
2022-11-09T17:16:20.932Z,15.11
2022-11-09T17:19:06.827Z,15.10
2022-11-09T17:21:53.106Z,15.13
2022-11-09T17:24:39.399Z,15.03
2022-11-09T17:27:27.095Z,15.00
2022-11-09T17:30:14.621Z,14.84
2022-11-09T17:33:01.832Z,14.96
2022-11-09T17:35:48.218Z,14.87
2022-11-09T17:38:35.283Z,14.83
2022-11-09T17:41:21.989Z,14.79
2022-11-09T17:44:08.388Z,14.82
2022-11-09T17:46:54.812Z,14.70
2022-11-09T17:49:41.111Z,14.66
2022-11-09T17:52:27.244Z,14.66
2022-11-09T17:55:15.881Z,14.62
2022-11-09T17:58:03.694Z,14.45
2022-11-09T18:00:51.421Z,14.48
2022-11-09T18:03:38.704Z,14.41
2022-11-09T18:06:29.421Z,14.45
2022-11-09T18:09:40.386Z,14.39
2022-11-09T18:12:23.506Z,14.29
2022-11-09T18:15:09.870Z,14.23
2022-11-09T18:17:57.365Z,14.27
2022-11-09T18:20:43.760Z,14.37
2022-11-09T18:23:29.820Z,14.34
2022-11-09T18:26:16.394Z,14.33
2022-11-09T18:29:03.085Z,14.21
2022-11-09T18:31:51.429Z,14.03
2022-11-09T18:34:38.543Z,13.88
2022-11-09T18:37:26.792Z,13.92
2022-11-09T18:40:13.017Z,13.77
2022-11-09T18:43:05.280Z,13.72
2022-11-09T18:46:04.808Z,13.71
2022-11-09T18:48:56.062Z,13.71
2022-11-09T18:51:43.556Z,13.71
2022-11-09T18:54:31.623Z,13.71
2022-11-09T18:57:20.218Z,13.80
2022-11-09T19:00:08.673Z,13.77
2022-11-09T19:02:54.894Z,13.75
2022-11-09T19:05:43.513Z,13.79
2022-11-09T19:08:48.246Z,13.80
2022-11-09T19:11:34.388Z,13.75
2022-11-09T19:14:20.508Z,13.72
2022-11-09T19:17:08.853Z,13.70
2022-11-09T19:19:56.487Z,13.84
2022-11-09T19:22:42.728Z,13.82
2022-11-09T19:25:28.412Z,13.74
2022-11-09T19:28:15.273Z,13.80
2022-11-09T19:31:01.283Z,13.96
2022-11-09T19:33:47.660Z,13.91
2022-11-09T19:36:33.823Z,13.84
2022-11-09T19:39:19.941Z,13.86
2022-11-09T19:42:06.928Z,13.81
2022-11-09T19:44:56.463Z,13.78
2022-11-09T19:47:42.794Z,13.77
2022-11-09T19:50:28.870Z,13.67
2022-11-09T19:53:14.598Z,13.71
2022-11-09T19:56:05.175Z,13.62
2022-11-09T19:58:59.878Z,13.64
2022-11-09T20:01:46.105Z,13.64
2022-11-09T20:04:33.377Z,13.54
2022-11-09T20:07:21.960Z,13.55
2022-11-09T20:10:31.867Z,13.45
2022-11-09T20:13:24.976Z,13.38
2022-11-09T20:16:12.432Z,13.37
2022-11-09T20:19:19.728Z,13.43
2022-11-09T20:22:06.304Z,13.30
2022-11-09T20:24:52.207Z,13.14
2022-11-09T20:27:40.227Z,12.89
2022-11-09T20:30:26.155Z,12.70
2022-11-09T20:33:14.716Z,12.49
2022-11-09T20:36:00.787Z,12.27
2022-11-09T20:38:48.681Z,12.25
2022-11-09T20:41:35.804Z,12.16
2022-11-09T20:44:24.457Z,12.15
2022-11-09T20:47:10.490Z,12.12
2022-11-09T20:50:00.715Z,12.31
2022-11-09T20:52:46.724Z,12.36
2022-11-09T20:55:36.220Z,12.09
2022-11-09T20:58:23.363Z,11.81
2022-11-09T21:01:16.587Z,11.80
2022-11-09T21:04:05.601Z,11.83
2022-11-09T21:06:51.742Z,11.59
2022-11-09T21:09:37.718Z,11.68
2022-11-09T21:12:25.038Z,11.70
2022-11-09T21:15:14.096Z,11.71
2022-11-09T21:18:00.060Z,11.65
2022-11-09T21:20:46.066Z,11.55
2022-11-09T21:23:50.677Z,11.21
2022-11-09T21:26:55.340Z,11.11
2022-11-09T21:29:52.121Z,11.17
2022-11-09T21:32:39.372Z,11.14
2022-11-09T21:35:26.542Z,11.09
2022-11-09T21:38:12.890Z,11.04
2022-11-09T21:41:24.096Z,11.09
2022-11-09T21:44:12.425Z,11.16
2022-11-09T21:46:59.142Z,11.18
2022-11-09T21:49:45.371Z,11.21
2022-11-09T21:52:31.410Z,11.11
2022-11-09T21:55:17.762Z,11.04
2022-11-09T21:58:04.053Z,11.00
2022-11-09T22:00:49.926Z,11.05
2022-11-09T22:03:37.380Z,11.09
2022-11-09T22:06:25.630Z,11.13
2022-11-09T22:09:18.252Z,11.07
2022-11-09T22:12:22.681Z,10.96
2022-11-09T22:15:28.962Z,10.91
2022-11-09T22:18:36.135Z,10.93
2022-11-09T22:21:30.298Z,11.01
2022-11-09T22:24:16.568Z,10.97
2022-11-09T22:27:02.713Z,11.04
2022-11-09T22:29:48.844Z,10.88
2022-11-09T22:32:34.977Z,10.86
2022-11-09T22:35:21.831Z,10.87
2022-11-09T22:38:08.060Z,10.82
2022-11-09T22:40:58.895Z,10.86
2022-11-09T22:43:45.493Z,10.85
2022-11-09T22:46:31.588Z,10.64
2022-11-09T22:49:19.159Z,10.73
2022-11-09T22:52:06.264Z,10.72
2022-11-09T22:54:51.887Z,10.78
2022-11-09T22:57:38.039Z,10.56
2022-11-09T23:00:24.539Z,10.58
2022-11-09T23:03:10.624Z,10.69
2022-11-09T23:06:03.203Z,10.62
2022-11-09T23:08:49.869Z,10.63
2022-11-09T23:11:36.327Z,10.71
2022-11-09T23:14:42.667Z,10.82
2022-11-09T23:17:47.120Z,10.78
2022-11-09T23:20:35.703Z,10.69
2022-11-09T23:23:21.803Z,10.65
2022-11-09T23:26:09.409Z,10.85
2022-11-09T23:28:55.598Z,10.76
2022-11-09T23:31:41.609Z,10.65
2022-11-09T23:34:27.228Z,10.50
2022-11-09T23:37:13.459Z,10.56
2022-11-09T23:40:00.034Z,10.37
2022-11-09T23:42:46.092Z,10.27
2022-11-09T23:45:35.079Z,10.13
2022-11-09T23:48:21.076Z,9.90
2022-11-09T23:51:08.947Z,10.08
2022-11-09T23:53:54.884Z,9.85
2022-11-09T23:56:40.887Z,10.02
2022-11-09T23:59:26.499Z,10.03
